Time;durP1;ratioP1;P1;durP2;ratioP2;P2;SDS_P1;SDS_P2;PMS_P1;PMS_P2;Temp;Humidity;BMP_temperature;BMP_pressure;BME280_temperature;BME280_humidity;BME280_pressure;Samples;Min_cycle;Max_cycle;Signal;HPM_P1;HPM_P2
2022/08/04 00:02:42;;;;;;;1.48;1.00;;;26.00;46.10;;;;;;4995343;28;87318;-82
2022/08/04 00:05:18;;;;;;;1.80;0.80;;;26.00;46.10;;;;;;4995758;28;88458;-81
2022/08/04 00:07:52;;;;;;;1.25;1.00;;;26.00;46.20;;;;;;4996264;28;87626;-81
2022/08/04 00:10:21;;;;;;;1.00;0.80;;;26.00;46.10;;;;;;4996476;28;86554;-81
2022/08/04 00:12:48;;;;;;;1.95;1.00;;;26.00;46.20;;;;;;4994136;28;90634;-81
2022/08/04 00:15:16;;;;;;;1.35;0.90;;;26.00;46.00;;;;;;4996156;28;87837;-81
2022/08/04 00:18:06;;;;;;;1.52;1.00;;;26.00;46.00;;;;;;4995893;28;88341;-80
2022/08/04 00:20:33;;;;;;;1.73;0.98;;;26.00;46.00;;;;;;4995056;28;87457;-81
2022/08/04 00:23:00;;;;;;;0.82;0.60;;;26.00;46.20;;;;;;4995875;28;87200;-81
2022/08/04 00:25:27;;;;;;;1.15;0.98;;;26.00;46.30;;;;;;4995393;28;87799;-80
2022/08/04 00:27:53;;;;;;;1.85;0.80;;;26.00;46.30;;;;;;4995869;28;87318;-80
2022/08/04 00:30:19;;;;;;;1.00;0.77;;;26.00;46.40;;;;;;4994636;28;87525;-80
2022/08/04 00:32:46;;;;;;;1.17;1.00;;;26.00;46.30;;;;;;4995708;28;88590;-81
2022/08/04 00:35:15;;;;;;;1.83;0.90;;;26.00;46.50;;;;;;5009460;28;87992;-80
2022/08/04 00:37:44;;;;;;;1.63;1.00;;;26.00;46.60;;;;;;4994746;28;87416;-82
2022/08/04 00:40:41;;;;;;;2.08;0.80;;;26.00;46.40;;;;;;4994822;28;89071;-80
2022/08/04 00:43:17;;;;;;;1.40;0.80;;;26.00;46.60;;;;;;4972260;28;88551;-80
2022/08/04 00:46:20;;;;;;;1.35;0.90;;;26.00;46.70;;;;;;4972049;28;87634;-80
2022/08/04 00:48:57;;;;;;;2.35;0.82;;;26.00;46.70;;;;;;4972846;28;87088;-82
2022/08/04 00:51:56;;;;;;;1.27;0.80;;;26.00;46.80;;;;;;4972120;28;87982;-81
2022/08/04 00:54:30;;;;;;;1.23;0.90;;;26.00;46.90;;;;;;4971597;28;88984;-81
2022/08/04 00:57:27;;;;;;;1.38;1.10;;;26.00;46.90;;;;;;4972655;28;88734;-81
2022/08/04 00:59:52;;;;;;;0.88;0.70;;;26.00;47.70;;;;;;4973332;28;87822;-81
2022/08/04 01:02:25;;;;;;;1.85;0.93;;;26.00;47.20;;;;;;4973076;28;86936;-81
2022/08/04 01:05:19;;;;;;;1.10;0.80;;;25.90;47.00;;;;;;4971736;28;87901;-82
2022/08/04 01:08:16;;;;;;;0.65;0.60;;;25.90;47.00;;;;;;4970499;28;88714;-82
2022/08/04 01:10:57;;;;;;;1.10;1.00;;;25.90;47.10;;;;;;4971264;28;88024;-81
2022/08/04 01:13:43;;;;;;;1.17;0.90;;;26.00;47.10;;;;;;4954350;28;90713;-80
2022/08/04 01:16:12;;;;;;;1.15;0.90;;;25.90;47.40;;;;;;4971262;28;88729;-82
2022/08/04 01:19:06;;;;;;;1.13;0.90;;;25.90;47.20;;;;;;4972039;28;87458;-81
2022/08/04 01:21:50;;;;;;;1.38;0.90;;;25.90;47.30;;;;;;4993663;28;87605;-81
2022/08/04 01:24:40;;;;;;;2.35;1.13;;;25.90;47.30;;;;;;4993575;28;87524;-81
2022/08/04 01:27:15;;;;;;;1.30;0.98;;;25.90;47.30;;;;;;4994499;28;88557;-82
2022/08/04 01:29:52;;;;;;;1.17;0.60;;;25.90;47.50;;;;;;4994061;28;87990;-82
2022/08/04 01:32:36;;;;;;;2.10;1.10;;;25.90;47.60;;;;;;4994632;28;87348;-81
2022/08/04 01:35:10;;;;;;;1.02;0.75;;;25.90;47.60;;;;;;4992442;28;87277;-82
2022/08/04 01:37:47;;;;;;;0.95;0.77;;;25.90;47.40;;;;;;4992539;28;89536;-81
2022/08/04 01:40:14;;;;;;;0.60;0.50;;;25.90;47.60;;;;;;4993831;28;88148;-81
2022/08/04 01:42:41;;;;;;;0.70;0.60;;;25.90;47.70;;;;;;4994151;28;86918;-81
2022/08/04 01:45:10;;;;;;;0.50;0.50;;;25.90;47.70;;;;;;4994044;28;87583;-81
2022/08/04 01:47:39;;;;;;;1.02;0.70;;;25.90;47.70;;;;;;4993316;28;89225;-80
2022/08/04 01:50:07;;;;;;;0.95;0.70;;;25.90;47.70;;;;;;4994707;28;88052;-81
2022/08/04 01:52:38;;;;;;;1.17;0.88;;;25.90;47.70;;;;;;4994500;28;87950;-82
2022/08/04 01:55:08;;;;;;;2.17;1.10;;;25.90;47.60;;;;;;4994056;28;87170;-80
2022/08/04 01:57:55;;;;;;;0.93;0.70;;;25.90;47.80;;;;;;4994204;28;88568;-81
2022/08/04 02:00:25;;;;;;;1.40;0.90;;;25.90;47.70;;;;;;4993655;28;89592;-80
2022/08/04 02:02:51;;;;;;;1.20;0.90;;;25.90;47.90;;;;;;4994831;28;87941;-81
2022/08/04 02:05:19;;;;;;;0.95;0.70;;;25.90;47.90;;;;;;4994462;28;87644;-81
2022/08/04 02:08:01;;;;;;;1.63;1.08;;;25.90;47.90;;;;;;4993106;28;89526;-81
2022/08/04 02:10:49;;;;;;;0.88;0.88;;;25.90;48.00;;;;;;4994022;28;87913;-82
2022/08/04 02:13:29;;;;;;;1.17;0.90;;;25.90;48.20;;;;;;4951442;28;87322;-81
2022/08/04 02:16:01;;;;;;;0.90;0.77;;;26.00;48.20;;;;;;4956667;28;87551;-81
2022/08/04 02:19:05;;;;;;;0.80;0.73;;;25.90;48.30;;;;;;4957871;28;87476;-81
2022/08/04 02:21:32;;;;;;;0.70;0.63;;;25.90;48.40;;;;;;4881177;28;87289;-81
2022/08/04 02:24:10;;;;;;;1.10;0.63;;;25.90;48.40;;;;;;4880645;28;87442;-81
2022/08/04 02:26:40;;;;;;;0.88;0.68;;;25.90;48.50;;;;;;4881138;28;87758;-82
2022/08/04 02:29:42;;;;;;;0.95;0.63;;;25.90;48.60;;;;;;4880348;28;88698;-81
2022/08/04 02:32:37;;;;;;;1.52;0.80;;;25.90;48.60;;;;;;4881754;28;90332;-80
2022/08/04 02:35:07;;;;;;;0.70;0.70;;;25.90;48.70;;;;;;4881092;28;86997;-82
2022/08/04 02:37:34;;;;;;;1.98;0.80;;;25.90;48.80;;;;;;4896952;28;88212;-81
2022/08/04 02:40:02;;;;;;;0.90;0.70;;;25.90;48.80;;;;;;4880937;28;87656;-81
2022/08/04 02:42:29;;;;;;;3.28;0.88;;;25.90;48.80;;;;;;4880924;28;89653;-81
2022/08/04 02:44:58;;;;;;;0.93;0.80;;;25.90;48.80;;;;;;4880360;28;87112;-81
2022/08/04 02:47:25;;;;;;;1.25;0.85;;;25.90;48.90;;;;;;4881666;28;86716;-81
2022/08/04 02:49:51;;;;;;;1.00;0.77;;;25.90;48.80;;;;;;4890207;28;88933;-80
2022/08/04 02:52:18;;;;;;;0.80;0.70;;;25.90;49.00;;;;;;4919020;28;87105;-81
2022/08/04 02:54:46;;;;;;;1.23;0.80;;;25.90;48.80;;;;;;4931658;28;88117;-81
2022/08/04 02:57:13;;;;;;;0.88;0.80;;;25.90;48.90;;;;;;5000237;28;87404;-80
2022/08/04 03:00:05;;;;;;;2.47;1.00;;;25.90;49.00;;;;;;5001149;28;88855;-81
2022/08/04 03:02:39;;;;;;;1.55;1.00;;;25.90;49.00;;;;;;4999847;28;87932;-81
2022/08/04 03:05:16;;;;;;;0.90;0.70;;;25.90;49.20;;;;;;4999250;28;86889;-81
2022/08/04 03:07:50;;;;;;;0.77;0.70;;;25.90;49.30;;;;;;5000440;28;87395;-81
2022/08/04 03:10:22;;;;;;;0.70;0.63;;;25.90;49.20;;;;;;4999811;28;88545;-82
2022/08/04 03:13:06;;;;;;;1.05;0.80;;;25.90;49.20;;;;;;5000284;28;88497;-81
2022/08/04 03:16:18;;;;;;;0.95;0.70;;;25.90;49.20;;;;;;4999928;28;87524;-81
2022/08/04 03:19:30;;;;;;;1.05;0.70;;;25.90;49.10;;;;;;4957028;28;87650;-80
2022/08/04 03:22:27;;;;;;;0.80;0.63;;;25.90;49.20;;;;;;4956635;28;91180;-80
2022/08/04 03:25:30;;;;;;;1.50;0.90;;;25.90;49.30;;;;;;4956955;28;89109;-81
2022/08/04 03:28:17;;;;;;;1.10;0.70;;;25.90;49.30;;;;;;4954235;28;87447;-80
2022/08/04 03:30:58;;;;;;;1.08;0.80;;;25.90;49.40;;;;;;4954002;28;87130;-80
2022/08/04 03:33:45;;;;;;;1.10;1.00;;;25.90;49.40;;;;;;4953884;28;88504;-80
2022/08/04 03:36:31;;;;;;;1.02;0.93;;;25.90;49.40;;;;;;4953790;28;87767;-81
2022/08/04 03:39:18;;;;;;;1.10;0.95;;;25.90;49.40;;;;;;4953874;28;87717;-81
2022/08/04 03:42:05;;;;;;;1.20;0.80;;;25.90;49.40;;;;;;4954183;28;87397;-80
2022/08/04 03:44:39;;;;;;;1.77;0.90;;;25.90;49.50;;;;;;4954123;28;88547;-80
2022/08/04 03:47:27;;;;;;;1.05;0.60;;;25.90;49.60;;;;;;4952956;28;87846;-80
2022/08/04 03:50:16;;;;;;;1.05;0.85;;;25.80;49.60;;;;;;4954660;28;88044;-81
2022/08/04 03:53:09;;;;;;;1.13;0.85;;;25.90;49.60;;;;;;4953878;28;87144;-81
2022/08/04 03:55:34;;;;;;;0.68;0.68;;;25.90;49.80;;;;;;4981220;28;87515;-80
2022/08/04 03:58:15;;;;;;;1.00;0.85;;;25.90;49.70;;;;;;4994751;28;89730;-80
2022/08/04 04:01:18;;;;;;;1.02;0.90;;;25.80;49.80;;;;;;4995898;28;87412;-80
2022/08/04 04:04:13;;;;;;;1.02;0.70;;;25.80;49.80;;;;;;4996067;28;88056;-80
2022/08/04 04:07:15;;;;;;;1.20;1.10;;;25.80;49.70;;;;;;4996188;28;87764;-81
2022/08/04 04:10:15;;;;;;;0.80;0.77;;;25.80;49.80;;;;;;4996263;28;88430;-81
2022/08/04 04:12:46;;;;;;;1.00;0.90;;;25.80;49.80;;;;;;4994914;28;86957;-80
2022/08/04 04:15:51;;;;;;;1.52;0.70;;;25.80;49.90;;;;;;4994826;28;89115;-80
2022/08/04 04:18:53;;;;;;;1.02;0.70;;;25.80;49.90;;;;;;4952739;28;88926;-80
2022/08/04 04:21:51;;;;;;;0.70;0.70;;;25.80;49.80;;;;;;4953282;28;89320;-81
2022/08/04 04:24:45;;;;;;;0.95;0.93;;;25.80;50.00;;;;;;4954725;28;87266;-80
2022/08/04 04:28:00;;;;;;;0.80;0.80;;;25.80;50.00;;;;;;4950639;28;87536;-80
2022/08/04 04:30:38;;;;;;;0.98;0.70;;;25.80;50.00;;;;;;4953956;28;87260;-80
2022/08/04 04:33:38;;;;;;;0.77;0.70;;;25.90;50.00;;;;;;4954061;28;87925;-80
2022/08/04 04:36:43;;;;;;;0.70;0.70;;;25.80;49.90;;;;;;4875206;28;87363;-81
2022/08/04 04:39:40;;;;;;;1.05;0.90;;;25.80;50.10;;;;;;4875795;28;86840;-80
2022/08/04 04:42:13;;;;;;;1.40;1.00;;;25.80;50.10;;;;;;4837778;29;87763;-81
2022/08/04 04:44:44;;;;;;;0.77;0.77;;;25.80;50.00;;;;;;4838560;29;88167;-81
2022/08/04 04:47:37;;;;;;;1.85;1.08;;;25.80;50.10;;;;;;4838299;29;87962;-80
2022/08/04 04:50:17;;;;;;;1.38;0.90;;;25.90;50.30;;;;;;4838211;29;87601;-79
2022/08/04 04:52:55;;;;;;;0.95;0.85;;;25.80;50.30;;;;;;4838248;29;89084;-81
2022/08/04 04:55:27;;;;;;;0.70;0.70;;;25.90;50.30;;;;;;4859545;28;87391;-81
2022/08/04 04:57:57;;;;;;;0.93;0.80;;;25.90;50.40;;;;;;4875939;28;87291;-80
2022/08/04 05:00:26;;;;;;;0.80;0.70;;;25.90;50.40;;;;;;4876445;28;87274;-80
2022/08/04 05:02:54;;;;;;;1.05;0.82;;;25.90;50.30;;;;;;4876253;28;87791;-80
2022/08/04 05:05:36;;;;;;;1.17;0.80;;;25.90;50.30;;;;;;4875788;28;87628;-80
2022/08/04 05:08:43;;;;;;;0.80;0.80;;;25.90;50.40;;;;;;4876228;28;87625;-80
2022/08/04 05:11:27;;;;;;;1.33;0.90;;;26.00;50.20;;;;;;4876346;28;87805;-80
2022/08/04 05:13:58;;;;;;;0.88;0.88;;;26.00;50.10;;;;;;4952325;28;89445;-80
2022/08/04 05:16:33;;;;;;;1.50;0.70;;;26.00;50.00;;;;;;4951921;28;88080;-80
2022/08/04 05:19:02;;;;;;;0.73;0.70;;;26.00;49.80;;;;;;4972907;28;87315;-80
2022/08/04 05:21:45;;;;;;;1.25;1.13;;;26.10;49.60;;;;;;4994372;28;87458;-80
2022/08/04 05:24:16;;;;;;;1.25;0.70;;;26.10;49.60;;;;;;4994990;28;89184;-81
2022/08/04 05:26:51;;;;;;;0.80;0.73;;;26.10;49.70;;;;;;4993308;28;87962;-80
2022/08/04 05:29:33;;;;;;;0.77;0.70;;;26.10;49.70;;;;;;4994856;28;87883;-81
2022/08/04 05:32:04;;;;;;;1.08;0.85;;;26.10;49.80;;;;;;4995137;28;87621;-80
2022/08/04 05:34:38;;;;;;;1.48;0.80;;;26.10;49.60;;;;;;4994947;28;88504;-79
2022/08/04 05:37:08;;;;;;;0.95;0.70;;;26.10;49.70;;;;;;4994480;28;89949;-80
2022/08/04 05:39:56;;;;;;;0.93;0.73;;;26.10;49.60;;;;;;4994621;28;88047;-81
2022/08/04 05:42:22;;;;;;;1.10;0.60;;;26.10;49.50;;;;;;4994304;28;87616;-80
2022/08/04 05:44:48;;;;;;;1.88;0.82;;;26.10;49.60;;;;;;4994627;28;88590;-81
2022/08/04 05:47:15;;;;;;;1.25;0.93;;;26.20;49.80;;;;;;4995307;28;87468;-81
2022/08/04 05:49:42;;;;;;;1.23;0.80;;;26.20;49.70;;;;;;4994118;28;87478;-80
2022/08/04 05:52:09;;;;;;;2.58;0.95;;;26.20;49.60;;;;;;4994447;28;87326;-81
2022/08/04 05:54:37;;;;;;;3.33;1.00;;;26.20;50.10;;;;;;4994411;28;88722;-79
2022/08/04 05:57:04;;;;;;;11.60;1.10;;;26.20;50.40;;;;;;4994524;28;88605;-80
2022/08/04 05:59:31;;;;;;;6.30;1.80;;;26.20;50.80;;;;;;4992825;28;87472;-79
2022/08/04 06:01:59;;;;;;;8.15;1.45;;;26.30;51.20;;;;;;4994902;28;87331;-79
2022/08/04 06:04:31;;;;;;;3.97;1.20;;;26.40;51.50;;;;;;4993031;28;89582;-79
2022/08/04 06:06:57;;;;;;;16.50;3.30;;;26.40;51.50;;;;;;4991488;28;88749;-79
2022/08/04 06:09:23;;;;;;;12.95;3.13;;;26.40;51.70;;;;;;4990702;28;86995;-79
2022/08/04 06:11:50;;;;;;;17.25;3.70;;;26.50;52.20;;;;;;4991473;28;87517;-79
2022/08/04 06:14:18;;;;;;;19.50;4.10;;;26.50;52.50;;;;;;4989743;28;87705;-83
2022/08/04 06:16:45;;;;;;;17.98;4.30;;;26.60;53.70;;;;;;4989269;28;88029;-82
2022/08/04 06:19:13;;;;;;;14.90;3.67;;;26.60;53.60;;;;;;4990900;28;87286;-81
2022/08/04 06:21:44;;;;;;;10.88;2.80;;;26.60;53.20;;;;;;4988316;28;87003;-84
2022/08/04 06:24:14;;;;;;;25.80;4.55;;;26.60;53.40;;;;;;4987724;28;88665;-83
2022/08/04 06:26:42;;;;;;;19.33;3.50;;;26.50;53.70;;;;;;4988953;28;88146;-83
2022/08/04 06:29:18;;;;;;;15.70;3.65;;;26.60;54.60;;;;;;4988852;28;88290;-82
2022/08/04 06:31:46;;;;;;;11.88;3.80;;;26.60;54.10;;;;;;4988644;28;88491;-82
2022/08/04 06:34:15;;;;;;;12.30;3.72;;;26.60;54.00;;;;;;4986189;28;90161;-83
2022/08/04 06:36:41;;;;;;;18.52;4.05;;;26.60;54.60;;;;;;4987689;28;88019;-84
2022/08/04 06:39:08;;;;;;;14.00;3.97;;;26.60;54.50;;;;;;4988648;28;87040;-84
2022/08/04 06:41:34;;;;;;;10.88;3.97;;;26.60;54.40;;;;;;4989053;28;87358;-83
2022/08/04 06:44:09;;;;;;;11.68;3.47;;;26.60;54.30;;;;;;5002223;28;88484;-85
2022/08/04 06:46:39;;;;;;;15.10;3.80;;;26.60;54.40;;;;;;4988756;28;89290;-84
2022/08/04 06:49:05;;;;;;;14.40;3.38;;;26.60;54.30;;;;;;4983888;28;87313;-85
2022/08/04 06:51:33;;;;;;;13.43;3.13;;;26.60;54.30;;;;;;4975430;28;87697;-84
2022/08/04 06:53:59;;;;;;;9.60;2.95;;;26.70;54.10;;;;;;4988519;28;89132;-84
2022/08/04 06:56:26;;;;;;;13.40;3.28;;;26.80;54.10;;;;;;4989078;28;88790;-84
2022/08/04 06:58:53;;;;;;;9.25;2.85;;;26.80;54.00;;;;;;4989728;28;87404;-85
2022/08/04 07:01:20;;;;;;;13.13;2.63;;;26.80;54.00;;;;;;4989290;28;87316;-84
2022/08/04 07:03:47;;;;;;;14.95;3.20;;;26.80;53.90;;;;;;4990456;28;90522;-84
2022/08/04 07:06:13;;;;;;;12.65;3.20;;;26.90;53.50;;;;;;4993408;28;87980;-84
2022/08/04 07:08:39;;;;;;;14.82;3.45;;;26.80;53.80;;;;;;4992782;28;86945;-85
2022/08/04 07:11:05;;;;;;;9.95;3.10;;;26.80;53.70;;;;;;4992581;28;87341;-84
2022/08/04 07:13:32;;;;;;;13.77;2.67;;;26.80;53.80;;;;;;4992319;28;87919;-83
2022/08/04 07:15:59;;;;;;;9.55;3.50;;;26.80;53.80;;;;;;4991867;28;88042;-84
2022/08/04 07:18:25;;;;;;;9.93;2.60;;;26.80;53.80;;;;;;4992527;28;88650;-84
2022/08/04 07:20:51;;;;;;;15.48;3.25;;;26.80;53.80;;;;;;4992700;28;87152;-83
2022/08/04 07:23:22;;;;;;;10.38;3.13;;;26.80;54.00;;;;;;4992548;28;88504;-84
2022/08/04 07:25:53;;;;;;;15.30;3.75;;;26.70;53.80;;;;;;4991696;28;87731;-83
2022/08/04 07:28:28;;;;;;;10.35;2.95;;;26.70;54.30;;;;;;4992512;28;88094;-83
2022/08/04 07:30:56;;;;;;;12.00;3.40;;;26.70;54.30;;;;;;4991383;28;87088;-83
2022/08/04 07:33:23;;;;;;;16.92;3.35;;;26.70;54.50;;;;;;4994236;28;89471;-83
2022/08/04 07:35:51;;;;;;;10.88;3.40;;;26.70;54.70;;;;;;4995731;28;89903;-85
2022/08/04 07:38:17;;;;;;;23.65;5.05;;;26.70;54.70;;;;;;4997365;28;86820;-84
2022/08/04 07:40:44;;;;;;;15.90;3.47;;;26.80;55.30;;;;;;4996180;28;87650;-85
2022/08/04 07:43:13;;;;;;;21.02;4.13;;;26.80;54.90;;;;;;4996736;28;89526;-86
2022/08/04 07:45:38;;;;;;;;;;;26.80;55.00;;;;;;4998118;28;89873;-86
2022/08/04 07:48:05;;;;;;;40.58;8.02;;;26.80;54.90;;;;;;4998317;28;86867;-85
2022/08/04 07:50:32;;;;;;;42.92;9.38;;;26.80;55.10;;;;;;4993776;28;87414;-85
2022/08/04 07:52:59;;;;;;;34.88;10.38;;;26.90;55.60;;;;;;4996570;28;88354;-85
2022/08/04 07:55:25;;;;;;;37.60;10.07;;;26.80;55.60;;;;;;4994368;28;87435;-85
2022/08/04 07:57:50;;;;;;;37.65;9.88;;;26.90;56.10;;;;;;4997120;28;87262;-84
2022/08/04 08:00:16;;;;;;;39.55;9.77;;;26.90;56.40;;;;;;4996996;28;86413;-85
2022/08/04 08:02:44;;;;;;;33.50;8.95;;;27.00;56.50;;;;;;4997049;28;88322;-84
2022/08/04 08:05:13;;;;;;;30.05;9.02;;;27.00;56.60;;;;;;5001939;28;87564;-84
2022/08/04 08:07:39;;;;;;;31.52;8.65;;;27.00;56.20;;;;;;5002204;28;88149;-85
2022/08/04 08:10:10;;;;;;;30.08;8.38;;;27.00;56.50;;;;;;5000541;28;87251;-83
2022/08/04 08:12:36;;;;;;;38.28;9.18;;;27.00;56.90;;;;;;5000499;28;88520;-84
2022/08/04 08:15:02;;;;;;;28.40;8.43;;;27.00;57.20;;;;;;5000827;28;88577;-83
2022/08/04 08:17:28;;;;;;;25.00;7.88;;;27.10;57.10;;;;;;5001153;28;86892;-83
2022/08/04 08:19:53;;;;;;;31.25;7.57;;;27.10;57.40;;;;;;5002184;28;87545;-84
2022/08/04 08:22:19;;;;;;;31.63;8.18;;;27.20;57.40;;;;;;5001562;28;87108;-85
2022/08/04 08:24:44;;;;;;;29.67;7.28;;;27.20;57.30;;;;;;5001380;28;87061;-84
2022/08/04 08:27:10;;;;;;;29.38;7.38;;;27.20;57.90;;;;;;5001210;28;87136;-85
2022/08/04 08:29:37;;;;;;;25.50;6.50;;;27.20;57.90;;;;;;5000866;28;87302;-84
2022/08/04 08:32:06;;;;;;;27.05;6.35;;;27.30;58.00;;;;;;5002350;28;87761;-84
2022/08/04 08:34:32;;;;;;;18.65;5.78;;;27.30;57.70;;;;;;5002727;28;89289;-84
2022/08/04 08:37:12;;;;;;;31.38;6.18;;;27.30;57.20;;;;;;5001711;28;87543;-84
2022/08/04 08:39:44;;;;;;;20.17;6.00;;;27.30;57.60;;;;;;4998799;28;87624;-84
2022/08/04 08:42:45;;;;;;;20.73;6.35;;;27.30;57.80;;;;;;5000593;28;87515;-84
2022/08/04 08:45:42;;;;;;;20.55;5.20;;;27.30;58.10;;;;;;5015786;28;89896;-83
2022/08/04 08:48:32;;;;;;;20.92;5.78;;;27.20;58.00;;;;;;5001683;28;87653;-84
2022/08/04 08:51:18;;;;;;;22.73;5.15;;;27.30;58.20;;;;;;5001737;28;87244;-83
2022/08/04 08:53:55;;;;;;;21.50;5.10;;;27.30;57.60;;;;;;5000097;28;90555;-85
2022/08/04 08:56:44;;;;;;;19.48;5.00;;;27.30;57.90;;;;;;5000273;28;87376;-85
2022/08/04 08:59:38;;;;;;;20.88;5.63;;;27.30;58.20;;;;;;5001116;28;88537;-84
2022/08/04 09:02:47;;;;;;;17.58;4.82;;;27.20;58.00;;;;;;4999422;28;87415;-85
2022/08/04 09:05:41;;;;;;;14.27;3.47;;;27.30;57.00;;;;;;4999913;28;87740;-83
2022/08/04 09:08:28;;;;;;;11.07;3.70;;;27.40;55.70;;;;;;4999760;28;87806;-84
2022/08/04 09:11:12;;;;;;;12.85;4.32;;;27.50;55.50;;;;;;5000395;28;86970;-85
2022/08/04 09:13:37;;;;;;;18.65;3.90;;;27.50;55.80;;;;;;5000022;28;87735;-84
2022/08/04 09:16:37;;;;;;;16.35;4.40;;;27.40;56.00;;;;;;5000130;28;87834;-85
2022/08/04 09:19:32;;;;;;;19.42;4.22;;;27.40;56.70;;;;;;5000832;28;87866;-83
2022/08/04 09:22:09;;;;;;;14.43;4.35;;;27.30;56.70;;;;;;5000322;28;87196;-86
2022/08/04 09:24:56;;;;;;;11.05;3.55;;;27.40;56.80;;;;;;4998982;28;87346;-84
2022/08/04 09:27:34;;;;;;;18.27;3.67;;;27.40;56.90;;;;;;4998600;28;89225;-86
2022/08/04 09:30:08;;;;;;;24.00;3.73;;;27.50;56.90;;;;;;4999231;28;91284;-83
2022/08/04 09:32:37;;;;;;;27.95;3.90;;;27.50;56.70;;;;;;5000927;28;87184;-84
2022/08/04 09:35:31;;;;;;;12.02;3.38;;;27.50;56.90;;;;;;5000225;28;87300;-84
2022/08/04 09:38:19;;;;;;;14.90;4.15;;;27.50;56.60;;;;;;5000594;28;88178;-84
2022/08/04 09:41:05;;;;;;;9.40;3.22;;;27.50;56.50;;;;;;5000138;28;89354;-84
2022/08/04 09:43:42;;;;;;;9.52;3.40;;;27.50;56.50;;;;;;5000366;28;87061;-85
2022/08/04 09:46:21;;;;;;;9.18;3.45;;;27.50;56.80;;;;;;5000083;28;86373;-84
2022/08/04 09:48:52;;;;;;;15.15;3.95;;;27.40;56.50;;;;;;4999359;28;88694;-85
2022/08/04 09:51:54;;;;;;;13.25;3.78;;;27.40;56.90;;;;;;5000326;28;88887;-85
2022/08/04 09:54:44;;;;;;;9.35;3.60;;;27.40;56.50;;;;;;4999528;28;87978;-86
2022/08/04 09:57:54;;;;;;;14.27;3.72;;;27.30;56.80;;;;;;4999746;28;87751;-85
2022/08/04 10:00:20;;;;;;;11.32;3.83;;;27.30;57.10;;;;;;4957569;28;87645;-84
2022/08/04 10:02:55;;;;;;;12.98;3.30;;;27.40;57.20;;;;;;4957010;28;89621;-85
2022/08/04 10:06:00;;;;;;;17.92;3.67;;;27.50;57.00;;;;;;4958715;28;87677;-85
2022/08/04 10:08:49;;;;;;;13.23;3.70;;;27.40;57.40;;;;;;4956857;28;87749;-84
2022/08/04 10:11:55;;;;;;;15.32;3.33;;;27.40;57.30;;;;;;4956071;28;88842;-83
2022/08/04 10:14:39;;;;;;;12.68;3.50;;;27.40;57.40;;;;;;4860781;28;87645;-85
2022/08/04 10:17:15;;;;;;;13.00;3.50;;;27.30;58.00;;;;;;4860207;28;87472;-85
2022/08/04 10:19:41;;;;;;;7.07;2.97;;;27.30;57.60;;;;;;4862436;28;87270;-85
2022/08/04 10:22:25;;;;;;;6.47;2.08;;;27.30;57.00;;;;;;4860407;28;89314;-85
2022/08/04 10:25:28;;;;;;;8.43;2.55;;;27.40;55.30;;;;;;4860871;29;88685;-85
2022/08/04 10:27:59;;;;;;;8.30;2.60;;;27.30;55.80;;;;;;4861087;29;88289;-85
2022/08/04 10:30:27;;;;;;;7.15;2.53;;;27.30;56.80;;;;;;4859699;28;89571;-84
2022/08/04 10:33:18;;;;;;;10.17;2.83;;;27.40;56.90;;;;;;4859916;28;87549;-85
2022/08/04 10:35:49;;;;;;;9.07;3.10;;;27.40;56.90;;;;;;4918116;28;87942;-86
2022/08/04 10:38:19;;;;;;;9.35;2.40;;;27.40;57.10;;;;;;4921643;28;87193;-85
2022/08/04 10:40:51;;;;;;;7.40;2.85;;;27.30;56.70;;;;;;4922430;28;87633;-85
2022/08/04 10:43:34;;;;;;;8.98;2.60;;;27.30;57.00;;;;;;4921577;28;87750;-86
2022/08/04 10:46:04;;;;;;;13.80;3.45;;;27.40;56.70;;;;;;4920923;28;87018;-84
2022/08/04 10:48:38;;;;;;;;;;;27.30;57.00;;;;;;4919995;28;88701;-84
2022/08/04 10:51:15;;;;;;;11.93;3.40;;;27.30;56.90;;;;;;4950626;28;86895;-85
2022/08/04 10:53:42;;;;;;;13.57;3.40;;;27.40;57.00;;;;;;5003205;28;87455;-85
2022/08/04 10:56:40;;;;;;;10.88;3.38;;;27.30;57.30;;;;;;5002774;28;88246;-85
2022/08/04 10:59:17;;;;;;;13.13;3.58;;;27.40;57.30;;;;;;4959624;28;87026;-85
2022/08/04 11:01:49;;;;;;;12.18;3.03;;;27.40;57.30;;;;;;4957716;28;87043;-85
2022/08/04 11:04:40;;;;;;;10.13;3.15;;;27.40;57.00;;;;;;4958899;28;87573;-83
2022/08/04 11:07:07;;;;;;;11.38;2.97;;;27.40;56.70;;;;;;4901081;28;89566;-84
2022/08/04 11:09:33;;;;;;;12.25;2.80;;;27.40;56.80;;;;;;4903389;28;87763;-84
2022/08/04 11:12:14;;;;;;;16.25;2.80;;;27.40;55.90;;;;;;4903327;28;87580;-84
2022/08/04 11:14:52;;;;;;;19.13;4.78;;;27.40;56.00;;;;;;4901723;28;88497;-85
2022/08/04 11:17:25;;;;;;;19.38;4.05;;;27.50;56.60;;;;;;4901517;28;88798;-85
2022/08/04 11:20:21;;;;;;;70.32;15.48;;;27.50;56.10;;;;;;4903368;28;87373;-85
2022/08/04 11:22:58;;;;;;;47.15;12.48;;;27.50;56.20;;;;;;4900954;28;87857;-84
2022/08/04 11:25:34;;;;;;;31.30;8.20;;;27.50;56.30;;;;;;4899435;28;88030;-85
2022/08/04 11:28:36;;;;;;;64.82;14.43;;;27.50;55.70;;;;;;4896841;28;87786;-83
2022/08/04 11:31:10;;;;;;;31.25;8.85;;;27.60;56.00;;;;;;4896673;28;87715;-82
2022/08/04 11:33:54;;;;;;;48.22;11.30;;;27.50;55.50;;;;;;4896757;28;86618;-83
2022/08/04 11:36:23;;;;;;;40.08;10.43;;;27.50;55.60;;;;;;4911898;28;88069;-82
2022/08/04 11:39:10;;;;;;;53.55;11.27;;;27.50;55.80;;;;;;4913593;28;88383;-82
2022/08/04 11:41:41;;;;;;;42.65;10.35;;;27.60;55.80;;;;;;4913277;28;88048;-82
2022/08/04 11:44:15;;;;;;;47.20;10.48;;;27.60;56.10;;;;;;4949166;28;87713;-82
2022/08/04 11:46:46;;;;;;;32.33;9.30;;;27.90;57.00;;;;;;4995360;28;87357;-82
2022/08/04 11:49:29;;;;;;;38.55;10.38;;;28.00;56.20;;;;;;4996348;28;87329;-83
2022/08/04 11:51:58;;;;;;;22.52;6.95;;;28.00;56.30;;;;;;4998367;28;87340;-80
2022/08/04 11:54:24;;;;;;;23.42;7.55;;;28.10;55.10;;;;;;4999455;28;88438;-80
2022/08/04 11:56:50;;;;;;;22.15;7.43;;;28.20;55.40;;;;;;4999075;28;87048;-82
2022/08/04 11:59:19;;;;;;;17.65;6.43;;;28.20;55.30;;;;;;4999993;28;88902;-79
2022/08/04 12:02:22;;;;;;;17.08;5.18;;;28.20;55.30;;;;;;4999029;28;87449;-81
2022/08/04 12:04:57;;;;;;;17.52;5.50;;;28.20;54.90;;;;;;4998214;28;87608;-80
2022/08/04 12:07:42;;;;;;;16.50;4.68;;;28.20;55.70;;;;;;4998005;28;88982;-80
2022/08/04 12:10:28;;;;;;;16.50;4.82;;;28.30;55.10;;;;;;4998087;28;87344;-82
2022/08/04 12:12:54;;;;;;;13.95;4.40;;;28.20;55.10;;;;;;4999032;28;87624;-82
2022/08/04 12:15:28;;;;;;;12.02;4.18;;;28.20;55.20;;;;;;4999178;28;87117;-80
2022/08/04 12:18:09;;;;;;;12.60;3.40;;;28.20;55.00;;;;;;4999044;28;88426;-80
2022/08/04 12:20:41;;;;;;;12.95;3.55;;;28.20;54.70;;;;;;4997585;28;89926;-80
2022/08/04 12:23:18;;;;;;;9.93;3.25;;;28.20;54.70;;;;;;4997547;28;87161;-80
2022/08/04 12:25:49;;;;;;;10.45;2.58;;;28.30;54.50;;;;;;4998052;28;87251;-81
2022/08/04 12:28:28;;;;;;;9.68;2.67;;;28.30;54.40;;;;;;4997702;28;88784;-82
2022/08/04 12:31:03;;;;;;;9.25;2.53;;;28.30;54.50;;;;;;4998300;28;87219;-80
2022/08/04 12:33:41;;;;;;;8.63;2.75;;;28.30;54.70;;;;;;4998039;28;87922;-82
2022/08/04 12:36:12;;;;;;;10.57;2.85;;;28.20;54.70;;;;;;4998513;28;87504;-83
2022/08/04 12:38:47;;;;;;;6.50;2.50;;;28.30;54.80;;;;;;4998301;28;88436;-81
2022/08/04 12:41:17;;;;;;;9.90;2.75;;;28.20;54.70;;;;;;4997860;28;88721;-82
2022/08/04 12:43:46;;;;;;;10.93;2.35;;;28.20;54.60;;;;;;4998948;28;86890;-82
2022/08/04 12:46:21;;;;;;;8.52;2.50;;;28.20;54.60;;;;;;4996554;28;86928;-83
2022/08/04 12:48:48;;;;;;;6.07;2.25;;;28.20;54.80;;;;;;4996277;28;88344;-82
2022/08/04 12:51:14;;;;;;;7.30;2.50;;;28.20;54.90;;;;;;4997758;28;87330;-82
2022/08/04 12:53:42;;;;;;;7.43;2.30;;;28.20;55.10;;;;;;4996324;28;87137;-83
2022/08/04 12:56:10;;;;;;;6.78;2.10;;;28.20;55.30;;;;;;4996194;28;87420;-82
2022/08/04 12:58:41;;;;;;;10.97;2.43;;;28.10;55.40;;;;;;4995719;28;89274;-83
2022/08/04 13:01:15;;;;;;;8.23;2.33;;;28.10;55.40;;;;;;4993814;28;88965;-82
2022/08/04 13:04:21;;;;;;;12.43;3.00;;;28.10;55.80;;;;;;4996708;28;87608;-83
2022/08/04 13:06:59;;;;;;;6.30;2.53;;;28.10;56.00;;;;;;4995971;28;87153;-83
2022/08/04 13:09:30;;;;;;;10.90;2.43;;;28.10;56.50;;;;;;4996169;28;88888;-83
2022/08/04 13:12:00;;;;;;;5.00;2.13;;;28.10;56.80;;;;;;4996147;28;88030;-82
2022/08/04 13:14:32;;;;;;;9.20;2.88;;;28.10;57.30;;;;;;4992347;28;87557;-85
2022/08/04 13:16:59;;;;;;;6.32;2.58;;;28.10;57.70;;;;;;4990645;28;87383;-84
2022/08/04 13:19:27;;;;;;;10.80;2.75;;;28.20;58.10;;;;;;4990267;28;88344;-84
2022/08/04 13:21:54;;;;;;;10.13;2.70;;;28.10;58.30;;;;;;4989645;28;87636;-83
2022/08/04 13:24:21;;;;;;;13.48;3.40;;;28.10;58.30;;;;;;4988789;28;88450;-85
2022/08/04 13:26:58;;;;;;;8.20;2.60;;;28.10;58.50;;;;;;4989654;28;87923;-84
2022/08/04 13:29:30;;;;;;;7.55;3.00;;;28.10;58.40;;;;;;4989055;28;88169;-84
2022/08/04 13:31:57;;;;;;;8.52;2.50;;;28.10;58.50;;;;;;4987803;28;90073;-83
2022/08/04 13:34:23;;;;;;;7.85;2.80;;;28.10;58.60;;;;;;4991046;28;87691;-84